sensor_id;sensor_type;location;lat;lon;timestamp;temperature;humidity
56076;DHT22;41951;49.022;12.066;2023-06-14T00:02:12;17.70;84.00
56076;DHT22;41951;49.022;12.066;2023-06-14T00:04:38;17.60;84.20
56076;DHT22;41951;49.022;12.066;2023-06-14T00:07:07;17.60;84.60
56076;DHT22;41951;49.022;12.066;2023-06-14T00:09:39;17.40;85.60
56076;DHT22;41951;49.022;12.066;2023-06-14T00:12:04;17.40;85.60
56076;DHT22;41951;49.022;12.066;2023-06-14T00:14:31;17.40;85.50
56076;DHT22;41951;49.022;12.066;2023-06-14T00:16:57;17.40;85.60
56076;DHT22;41951;49.022;12.066;2023-06-14T00:19:24;17.30;86.20
56076;DHT22;41951;49.022;12.066;2023-06-14T00:21:50;17.20;86.50
56076;DHT22;41951;49.022;12.066;2023-06-14T00:24:19;17.20;86.70
56076;DHT22;41951;49.022;12.066;2023-06-14T00:26:44;17.20;86.80
56076;DHT22;41951;49.022;12.066;2023-06-14T00:29:10;17.20;87.20
56076;DHT22;41951;49.022;12.066;2023-06-14T00:31:35;17.10;87.50
56076;DHT22;41951;49.022;12.066;2023-06-14T00:34:01;17.10;87.80
56076;DHT22;41951;49.022;12.066;2023-06-14T00:36:27;16.90;88.40
56076;DHT22;41951;49.022;12.066;2023-06-14T00:38:52;17.00;88.50
56076;DHT22;41951;49.022;12.066;2023-06-14T00:41:18;17.00;88.90
56076;DHT22;41951;49.022;12.066;2023-06-14T00:43:43;16.90;89.30
56076;DHT22;41951;49.022;12.066;2023-06-14T00:46:09;16.90;89.70
56076;DHT22;41951;49.022;12.066;2023-06-14T00:48:36;16.90;89.90
56076;DHT22;41951;49.022;12.066;2023-06-14T00:51:02;16.90;90.00
56076;DHT22;41951;49.022;12.066;2023-06-14T00:53:30;16.90;90.10
56076;DHT22;41951;49.022;12.066;2023-06-14T00:55:59;16.80;90.20
56076;DHT22;41951;49.022;12.066;2023-06-14T00:58:26;16.90;90.40
56076;DHT22;41951;49.022;12.066;2023-06-14T01:00:52;16.80;90.40
56076;DHT22;41951;49.022;12.066;2023-06-14T01:03:17;16.80;90.70
56076;DHT22;41951;49.022;12.066;2023-06-14T01:05:56;16.70;90.70
56076;DHT22;41951;49.022;12.066;2023-06-14T01:11:47;16.70;91.10
56076;DHT22;41951;49.022;12.066;2023-06-14T01:14:16;16.70;91.10
56076;DHT22;41951;49.022;12.066;2023-06-14T01:16:43;16.70;91.20
56076;DHT22;41951;49.022;12.066;2023-06-14T01:19:11;16.60;91.40
56076;DHT22;41951;49.022;12.066;2023-06-14T01:21:39;16.60;91.50
56076;DHT22;41951;49.022;12.066;2023-06-14T01:24:08;16.60;91.60
56076;DHT22;41951;49.022;12.066;2023-06-14T01:26:35;16.50;91.90
56076;DHT22;41951;49.022;12.066;2023-06-14T01:29:03;16.50;91.90
56076;DHT22;41951;49.022;12.066;2023-06-14T01:31:30;16.30;92.40
56076;DHT22;41951;49.022;12.066;2023-06-14T01:34:06;16.30;92.20
56076;DHT22;41951;49.022;12.066;2023-06-14T01:36:32;16.10;92.20
56076;DHT22;41951;49.022;12.066;2023-06-14T01:38:59;16.20;92.50
56076;DHT22;41951;49.022;12.066;2023-06-14T01:41:25;16.10;92.90
56076;DHT22;41951;49.022;12.066;2023-06-14T01:43:52;16.10;93.10
56076;DHT22;41951;49.022;12.066;2023-06-14T01:46:18;16.00;93.20
56076;DHT22;41951;49.022;12.066;2023-06-14T01:48:45;16.10;93.20
56076;DHT22;41951;49.022;12.066;2023-06-14T01:51:10;16.10;93.10
56076;DHT22;41951;49.022;12.066;2023-06-14T01:53:36;16.10;93.20
56076;DHT22;41951;49.022;12.066;2023-06-14T01:56:02;16.10;93.20
56076;DHT22;41951;49.022;12.066;2023-06-14T01:58:27;16.10;93.20
56076;DHT22;41951;49.022;12.066;2023-06-14T02:00:53;16.10;93.40
56076;DHT22;41951;49.022;12.066;2023-06-14T02:03:22;16.10;93.50
56076;DHT22;41951;49.022;12.066;2023-06-14T02:05:48;16.00;93.70
56076;DHT22;41951;49.022;12.066;2023-06-14T02:08:14;15.90;93.80
56076;DHT22;41951;49.022;12.066;2023-06-14T02:10:39;15.90;94.20
56076;DHT22;41951;49.022;12.066;2023-06-14T02:13:05;15.80;94.30
56076;DHT22;41951;49.022;12.066;2023-06-14T02:15:30;15.70;94.50
56076;DHT22;41951;49.022;12.066;2023-06-14T02:18:00;15.60;94.70
56076;DHT22;41951;49.022;12.066;2023-06-14T02:20:26;15.60;95.20
56076;DHT22;41951;49.022;12.066;2023-06-14T02:22:52;15.50;95.40
56076;DHT22;41951;49.022;12.066;2023-06-14T02:25:17;15.30;95.90
56076;DHT22;41951;49.022;12.066;2023-06-14T02:27:43;15.10;96.40
56076;DHT22;41951;49.022;12.066;2023-06-14T02:30:09;15.00;97.00
56076;DHT22;41951;49.022;12.066;2023-06-14T02:32:34;14.90;97.60
56076;DHT22;41951;49.022;12.066;2023-06-14T02:35:01;15.00;98.60
56076;DHT22;41951;49.022;12.066;2023-06-14T02:37:26;14.90;98.70
56076;DHT22;41951;49.022;12.066;2023-06-14T02:39:52;14.90;99.20
56076;DHT22;41951;49.022;12.066;2023-06-14T02:42:17;14.90;99.60
56076;DHT22;41951;49.022;12.066;2023-06-14T02:44:43;15.00;99.90
56076;DHT22;41951;49.022;12.066;2023-06-14T02:47:12;14.90;99.90
56076;DHT22;41951;49.022;12.066;2023-06-14T02:49:40;15.00;99.90
56076;DHT22;41951;49.022;12.066;2023-06-14T02:52:06;14.90;99.90
56076;DHT22;41951;49.022;12.066;2023-06-14T02:54:31;15.00;99.90
56076;DHT22;41951;49.022;12.066;2023-06-14T02:56:57;15.10;99.90
56076;DHT22;41951;49.022;12.066;2023-06-14T02:59:23;15.10;99.90
56076;DHT22;41951;49.022;12.066;2023-06-14T03:01:50;15.10;99.90
56076;DHT22;41951;49.022;12.066;2023-06-14T03:04:16;15.10;99.90
56076;DHT22;41951;49.022;12.066;2023-06-14T03:06:41;15.00;99.90
56076;DHT22;41951;49.022;12.066;2023-06-14T03:09:09;15.00;99.90
56076;DHT22;41951;49.022;12.066;2023-06-14T03:11:35;15.00;99.90
56076;DHT22;41951;49.022;12.066;2023-06-14T03:14:01;15.00;99.90
56076;DHT22;41951;49.022;12.066;2023-06-14T03:16:29;15.10;99.90
56076;DHT22;41951;49.022;12.066;2023-06-14T03:18:55;15.10;99.90
56076;DHT22;41951;49.022;12.066;2023-06-14T03:21:21;15.00;99.90
56076;DHT22;41951;49.022;12.066;2023-06-14T03:23:47;15.00;99.90
56076;DHT22;41951;49.022;12.066;2023-06-14T03:26:14;15.00;99.90
56076;DHT22;41951;49.022;12.066;2023-06-14T03:28:40;14.90;99.90
56076;DHT22;41951;49.022;12.066;2023-06-14T03:31:06;14.80;99.90
56076;DHT22;41951;49.022;12.066;2023-06-14T03:33:32;14.90;99.90
56076;DHT22;41951;49.022;12.066;2023-06-14T03:35:57;14.90;99.90
56076;DHT22;41951;49.022;12.066;2023-06-14T03:38:23;14.90;99.90
56076;DHT22;41951;49.022;12.066;2023-06-14T03:40:49;14.90;99.90
56076;DHT22;41951;49.022;12.066;2023-06-14T03:43:14;14.90;99.90
56076;DHT22;41951;49.022;12.066;2023-06-14T03:45:40;15.00;99.90
56076;DHT22;41951;49.022;12.066;2023-06-14T03:48:06;15.00;99.90
56076;DHT22;41951;49.022;12.066;2023-06-14T03:50:33;15.00;99.90
56076;DHT22;41951;49.022;12.066;2023-06-14T03:52:59;15.10;99.90
56076;DHT22;41951;49.022;12.066;2023-06-14T03:55:26;15.00;99.90
56076;DHT22;41951;49.022;12.066;2023-06-14T03:57:53;15.00;99.90
56076;DHT22;41951;49.022;12.066;2023-06-14T04:00:18;15.00;99.90
56076;DHT22;41951;49.022;12.066;2023-06-14T04:02:44;14.90;99.90
56076;DHT22;41951;49.022;12.066;2023-06-14T04:05:10;14.90;99.90
56076;DHT22;41951;49.022;12.066;2023-06-14T04:07:36;14.70;99.90
56076;DHT22;41951;49.022;12.066;2023-06-14T04:10:13;14.60;99.90
56076;DHT22;41951;49.022;12.066;2023-06-14T04:12:39;14.50;99.90
56076;DHT22;41951;49.022;12.066;2023-06-14T04:15:06;14.40;99.90
56076;DHT22;41951;49.022;12.066;2023-06-14T04:17:33;14.30;99.90
56076;DHT22;41951;49.022;12.066;2023-06-14T04:19:59;14.30;99.90
56076;DHT22;41951;49.022;12.066;2023-06-14T04:22:26;14.30;99.90
56076;DHT22;41951;49.022;12.066;2023-06-14T04:24:54;14.40;99.90
56076;DHT22;41951;49.022;12.066;2023-06-14T04:27:22;14.40;99.90
56076;DHT22;41951;49.022;12.066;2023-06-14T04:29:54;14.40;99.90
56076;DHT22;41951;49.022;12.066;2023-06-14T04:32:25;14.50;99.90
56076;DHT22;41951;49.022;12.066;2023-06-14T04:34:53;14.50;99.90
56076;DHT22;41951;49.022;12.066;2023-06-14T04:37:20;14.70;99.90
56076;DHT22;41951;49.022;12.066;2023-06-14T04:39:47;14.80;99.90
56076;DHT22;41951;49.022;12.066;2023-06-14T04:42:12;15.00;99.90
56076;DHT22;41951;49.022;12.066;2023-06-14T04:44:41;14.90;99.90
56076;DHT22;41951;49.022;12.066;2023-06-14T04:47:07;15.00;99.90
56076;DHT22;41951;49.022;12.066;2023-06-14T04:49:32;15.00;99.90
56076;DHT22;41951;49.022;12.066;2023-06-14T04:51:59;14.90;99.90
56076;DHT22;41951;49.022;12.066;2023-06-14T04:54:27;14.90;99.90
56076;DHT22;41951;49.022;12.066;2023-06-14T04:56:53;15.00;99.90
56076;DHT22;41951;49.022;12.066;2023-06-14T04:59:21;15.20;99.90
56076;DHT22;41951;49.022;12.066;2023-06-14T05:01:49;15.30;99.90
56076;DHT22;41951;49.022;12.066;2023-06-14T05:04:18;15.40;99.90
56076;DHT22;41951;49.022;12.066;2023-06-14T05:06:45;15.30;99.90
56076;DHT22;41951;49.022;12.066;2023-06-14T05:09:14;15.60;99.90
56076;DHT22;41951;49.022;12.066;2023-06-14T05:11:40;15.60;99.90
56076;DHT22;41951;49.022;12.066;2023-06-14T05:14:12;15.70;99.90
56076;DHT22;41951;49.022;12.066;2023-06-14T05:16:39;15.80;99.90
56076;DHT22;41951;49.022;12.066;2023-06-14T05:19:04;15.90;99.90
56076;DHT22;41951;49.022;12.066;2023-06-14T05:21:30;16.00;99.90
56076;DHT22;41951;49.022;12.066;2023-06-14T05:23:57;16.00;99.90
56076;DHT22;41951;49.022;12.066;2023-06-14T05:26:23;16.00;99.90
56076;DHT22;41951;49.022;12.066;2023-06-14T05:28:56;16.10;99.90
56076;DHT22;41951;49.022;12.066;2023-06-14T05:31:26;16.10;99.90
56076;DHT22;41951;49.022;12.066;2023-06-14T05:33:53;16.10;99.90
56076;DHT22;41951;49.022;12.066;2023-06-14T05:36:22;16.20;99.90
56076;DHT22;41951;49.022;12.066;2023-06-14T05:38:48;16.20;99.90
56076;DHT22;41951;49.022;12.066;2023-06-14T05:41:13;16.20;99.90
56076;DHT22;41951;49.022;12.066;2023-06-14T05:43:39;16.30;99.90
56076;DHT22;41951;49.022;12.066;2023-06-14T05:46:05;16.40;99.90
56076;DHT22;41951;49.022;12.066;2023-06-14T05:48:31;16.40;99.90
56076;DHT22;41951;49.022;12.066;2023-06-14T05:50:56;16.50;99.90
56076;DHT22;41951;49.022;12.066;2023-06-14T05:53:22;16.60;99.90
56076;DHT22;41951;49.022;12.066;2023-06-14T05:55:47;16.70;99.90
56076;DHT22;41951;49.022;12.066;2023-06-14T05:58:13;16.80;99.90
56076;DHT22;41951;49.022;12.066;2023-06-14T06:00:39;16.70;99.90
56076;DHT22;41951;49.022;12.066;2023-06-14T06:03:05;16.80;99.90
56076;DHT22;41951;49.022;12.066;2023-06-14T06:05:33;16.90;99.90
56076;DHT22;41951;49.022;12.066;2023-06-14T06:07:59;17.00;99.90
56076;DHT22;41951;49.022;12.066;2023-06-14T06:10:25;17.00;99.90
56076;DHT22;41951;49.022;12.066;2023-06-14T06:12:51;17.00;99.90
56076;DHT22;41951;49.022;12.066;2023-06-14T06:15:17;17.00;99.90
56076;DHT22;41951;49.022;12.066;2023-06-14T06:17:44;17.20;99.90
56076;DHT22;41951;49.022;12.066;2023-06-14T06:20:10;17.30;99.90
56076;DHT22;41951;49.022;12.066;2023-06-14T06:22:37;17.40;99.90
56076;DHT22;41951;49.022;12.066;2023-06-14T06:25:03;17.40;99.90
56076;DHT22;41951;49.022;12.066;2023-06-14T06:27:29;17.50;99.90
56076;DHT22;41951;49.022;12.066;2023-06-14T06:29:54;17.60;99.90
56076;DHT22;41951;49.022;12.066;2023-06-14T06:32:20;17.70;99.90
56076;DHT22;41951;49.022;12.066;2023-06-14T06:34:46;17.80;99.90
56076;DHT22;41951;49.022;12.066;2023-06-14T06:37:12;17.90;99.90
56076;DHT22;41951;49.022;12.066;2023-06-14T06:39:38;17.90;99.90
56076;DHT22;41951;49.022;12.066;2023-06-14T06:42:04;18.00;99.90
56076;DHT22;41951;49.022;12.066;2023-06-14T06:44:30;18.10;99.90
56076;DHT22;41951;49.022;12.066;2023-06-14T06:46:57;18.10;99.90
56076;DHT22;41951;49.022;12.066;2023-06-14T06:49:23;18.20;99.90
56076;DHT22;41951;49.022;12.066;2023-06-14T06:52:02;18.20;99.90
56076;DHT22;41951;49.022;12.066;2023-06-14T06:54:28;18.30;99.90
56076;DHT22;41951;49.022;12.066;2023-06-14T06:56:53;18.30;99.90
56076;DHT22;41951;49.022;12.066;2023-06-14T06:59:19;18.40;99.90
56076;DHT22;41951;49.022;12.066;2023-06-14T07:01:45;18.50;99.90
56076;DHT22;41951;49.022;12.066;2023-06-14T07:04:10;18.60;99.90
56076;DHT22;41951;49.022;12.066;2023-06-14T07:06:36;18.70;99.90
56076;DHT22;41951;49.022;12.066;2023-06-14T07:09:02;19.00;99.90
56076;DHT22;41951;49.022;12.066;2023-06-14T07:11:30;18.90;99.90
56076;DHT22;41951;49.022;12.066;2023-06-14T07:13:55;19.00;99.90
56076;DHT22;41951;49.022;12.066;2023-06-14T07:16:21;19.10;99.90
56076;DHT22;41951;49.022;12.066;2023-06-14T07:18:47;19.00;99.90
56076;DHT22;41951;49.022;12.066;2023-06-14T07:21:12;18.80;99.90
56076;DHT22;41951;49.022;12.066;2023-06-14T07:23:38;18.70;99.90
56076;DHT22;41951;49.022;12.066;2023-06-14T07:26:03;18.70;99.90
56076;DHT22;41951;49.022;12.066;2023-06-14T07:28:29;18.70;99.90
56076;DHT22;41951;49.022;12.066;2023-06-14T07:30:55;18.70;99.90
56076;DHT22;41951;49.022;12.066;2023-06-14T07:33:20;18.80;99.90
56076;DHT22;41951;49.022;12.066;2023-06-14T07:35:46;19.00;99.90
56076;DHT22;41951;49.022;12.066;2023-06-14T07:38:13;19.10;99.90
56076;DHT22;41951;49.022;12.066;2023-06-14T07:40:38;19.10;99.90
56076;DHT22;41951;49.022;12.066;2023-06-14T07:43:04;19.20;99.50
56076;DHT22;41951;49.022;12.066;2023-06-14T07:45:29;19.40;98.90
56076;DHT22;41951;49.022;12.066;2023-06-14T07:47:55;19.50;98.50
56076;DHT22;41951;49.022;12.066;2023-06-14T07:50:21;19.60;97.50
56076;DHT22;41951;49.022;12.066;2023-06-14T07:52:47;19.60;97.80
56076;DHT22;41951;49.022;12.066;2023-06-14T07:55:14;19.60;97.40
56076;DHT22;41951;49.022;12.066;2023-06-14T07:57:40;19.70;97.50
56076;DHT22;41951;49.022;12.066;2023-06-14T08:00:06;19.80;97.30
56076;DHT22;41951;49.022;12.066;2023-06-14T08:02:32;20.00;97.50
56076;DHT22;41951;49.022;12.066;2023-06-14T08:04:57;20.00;96.90
56076;DHT22;41951;49.022;12.066;2023-06-14T08:07:23;20.20;96.60
56076;DHT22;41951;49.022;12.066;2023-06-14T08:09:49;20.20;95.90
56076;DHT22;41951;49.022;12.066;2023-06-14T08:12:15;20.40;95.20
56076;DHT22;41951;49.022;12.066;2023-06-14T08:14:42;20.50;94.50
56076;DHT22;41951;49.022;12.066;2023-06-14T08:17:07;20.70;94.20
56076;DHT22;41951;49.022;12.066;2023-06-14T08:19:33;20.70;93.50
56076;DHT22;41951;49.022;12.066;2023-06-14T08:21:58;20.60;92.60
56076;DHT22;41951;49.022;12.066;2023-06-14T08:24:25;20.80;92.30
56076;DHT22;41951;49.022;12.066;2023-06-14T08:26:53;20.90;91.60
56076;DHT22;41951;49.022;12.066;2023-06-14T08:29:18;20.90;91.40
56076;DHT22;41951;49.022;12.066;2023-06-14T08:31:44;21.00;91.10
56076;DHT22;41951;49.022;12.066;2023-06-14T08:34:10;21.10;90.50
56076;DHT22;41951;49.022;12.066;2023-06-14T08:36:36;21.10;90.10
56076;DHT22;41951;49.022;12.066;2023-06-14T08:39:02;21.20;89.40
56076;DHT22;41951;49.022;12.066;2023-06-14T08:41:28;21.10;89.20
56076;DHT22;41951;49.022;12.066;2023-06-14T08:43:55;21.10;89.80
56076;DHT22;41951;49.022;12.066;2023-06-14T08:46:22;21.20;89.70
56076;DHT22;41951;49.022;12.066;2023-06-14T08:48:51;21.40;89.30
56076;DHT22;41951;49.022;12.066;2023-06-14T08:51:19;21.60;89.30
56076;DHT22;41951;49.022;12.066;2023-06-14T08:53:45;21.70;88.30
56076;DHT22;41951;49.022;12.066;2023-06-14T08:56:12;21.80;87.50
56076;DHT22;41951;49.022;12.066;2023-06-14T08:58:45;21.70;87.20
56076;DHT22;41951;49.022;12.066;2023-06-14T09:01:13;21.70;87.30
56076;DHT22;41951;49.022;12.066;2023-06-14T09:03:41;21.30;86.40
56076;DHT22;41951;49.022;12.066;2023-06-14T09:06:07;21.30;86.70
56076;DHT22;41951;49.022;12.066;2023-06-14T09:08:45;21.40;86.70
56076;DHT22;41951;49.022;12.066;2023-06-14T09:11:12;21.40;87.00
56076;DHT22;41951;49.022;12.066;2023-06-14T09:13:39;21.30;87.00
56076;DHT22;41951;49.022;12.066;2023-06-14T09:16:06;21.50;87.20
56076;DHT22;41951;49.022;12.066;2023-06-14T09:18:36;21.60;86.70
56076;DHT22;41951;49.022;12.066;2023-06-14T09:21:02;21.60;85.70
56076;DHT22;41951;49.022;12.066;2023-06-14T09:23:27;21.60;85.10
56076;DHT22;41951;49.022;12.066;2023-06-14T09:25:53;21.70;85.70
56076;DHT22;41951;49.022;12.066;2023-06-14T09:28:19;21.60;85.40
56076;DHT22;41951;49.022;12.066;2023-06-14T09:30:48;21.60;85.80
56076;DHT22;41951;49.022;12.066;2023-06-14T09:33:17;21.70;86.00
56076;DHT22;41951;49.022;12.066;2023-06-14T09:35:45;22.00;86.00
56076;DHT22;41951;49.022;12.066;2023-06-14T09:38:11;22.20;85.80
56076;DHT22;41951;49.022;12.066;2023-06-14T09:40:37;22.20;85.20
56076;DHT22;41951;49.022;12.066;2023-06-14T09:43:06;22.00;84.90
56076;DHT22;41951;49.022;12.066;2023-06-14T09:45:33;22.00;84.50
56076;DHT22;41951;49.022;12.066;2023-06-14T09:47:58;21.90;84.60
56076;DHT22;41951;49.022;12.066;2023-06-14T09:50:24;21.90;85.00
56076;DHT22;41951;49.022;12.066;2023-06-14T09:52:52;21.80;84.90
56076;DHT22;41951;49.022;12.066;2023-06-14T09:55:22;21.80;85.00
56076;DHT22;41951;49.022;12.066;2023-06-14T09:57:49;21.90;85.40
56076;DHT22;41951;49.022;12.066;2023-06-14T10:00:16;21.90;85.30
56076;DHT22;41951;49.022;12.066;2023-06-14T10:02:46;21.90;85.50
56076;DHT22;41951;49.022;12.066;2023-06-14T10:05:17;21.80;84.60
56076;DHT22;41951;49.022;12.066;2023-06-14T10:07:48;21.90;84.70
56076;DHT22;41951;49.022;12.066;2023-06-14T10:10:15;21.90;84.10
56076;DHT22;41951;49.022;12.066;2023-06-14T10:12:41;22.00;84.50
56076;DHT22;41951;49.022;12.066;2023-06-14T10:15:09;22.10;84.30
56076;DHT22;41951;49.022;12.066;2023-06-14T10:17:55;22.10;83.40
56076;DHT22;41951;49.022;12.066;2023-06-14T10:20:30;22.10;83.00
56076;DHT22;41951;49.022;12.066;2023-06-14T10:23:19;22.20;83.40
56076;DHT22;41951;49.022;12.066;2023-06-14T10:25:50;22.30;83.50
56076;DHT22;41951;49.022;12.066;2023-06-14T10:28:18;22.40;82.20
56076;DHT22;41951;49.022;12.066;2023-06-14T10:31:09;22.30;82.30
56076;DHT22;41951;49.022;12.066;2023-06-14T10:33:39;22.30;82.50
56076;DHT22;41951;49.022;12.066;2023-06-14T10:36:26;22.10;82.50
56076;DHT22;41951;49.022;12.066;2023-06-14T10:38:59;22.10;82.30
56076;DHT22;41951;49.022;12.066;2023-06-14T10:41:27;22.20;82.40
56076;DHT22;41951;49.022;12.066;2023-06-14T10:44:30;22.30;82.50
56076;DHT22;41951;49.022;12.066;2023-06-14T10:46:58;22.50;82.00
56076;DHT22;41951;49.022;12.066;2023-06-14T10:49:53;22.60;81.40
56076;DHT22;41951;49.022;12.066;2023-06-14T10:52:27;23.00;81.20
56076;DHT22;41951;49.022;12.066;2023-06-14T10:57:26;23.60;79.90
56076;DHT22;41951;49.022;12.066;2023-06-14T10:59:52;23.80;79.30
56076;DHT22;41951;49.022;12.066;2023-06-14T11:05:30;23.60;77.20
56076;DHT22;41951;49.022;12.066;2023-06-14T11:08:15;23.50;77.00
56076;DHT22;41951;49.022;12.066;2023-06-14T11:10:43;23.40;76.30
56076;DHT22;41951;49.022;12.066;2023-06-14T11:13:11;23.50;77.00
56076;DHT22;41951;49.022;12.066;2023-06-14T11:15:38;23.70;77.10
56076;DHT22;41951;49.022;12.066;2023-06-14T11:18:07;23.90;76.50
56076;DHT22;41951;49.022;12.066;2023-06-14T11:20:35;24.10;75.50
56076;DHT22;41951;49.022;12.066;2023-06-14T11:23:02;24.20;75.70
56076;DHT22;41951;49.022;12.066;2023-06-14T11:25:28;24.50;75.40
56076;DHT22;41951;49.022;12.066;2023-06-14T11:27:54;24.80;75.50
56076;DHT22;41951;49.022;12.066;2023-06-14T11:30:20;24.90;73.80
56076;DHT22;41951;49.022;12.066;2023-06-14T11:32:50;25.00;73.50
56076;DHT22;41951;49.022;12.066;2023-06-14T11:35:17;24.80;74.00
56076;DHT22;41951;49.022;12.066;2023-06-14T11:37:43;24.50;74.20
56076;DHT22;41951;49.022;12.066;2023-06-14T11:40:13;24.00;74.80
56076;DHT22;41951;49.022;12.066;2023-06-14T11:42:40;23.80;75.20
56076;DHT22;41951;49.022;12.066;2023-06-14T11:45:10;23.90;75.90
56076;DHT22;41951;49.022;12.066;2023-06-14T11:47:37;23.80;75.60
56076;DHT22;41951;49.022;12.066;2023-06-14T11:50:05;23.70;75.30
56076;DHT22;41951;49.022;12.066;2023-06-14T11:52:31;23.60;75.80
56076;DHT22;41951;49.022;12.066;2023-06-14T11:54:57;23.40;76.10
56076;DHT22;41951;49.022;12.066;2023-06-14T11:57:24;23.60;76.50
56076;DHT22;41951;49.022;12.066;2023-06-14T11:59:50;23.80;76.10
56076;DHT22;41951;49.022;12.066;2023-06-14T12:02:16;23.90;76.20
56076;DHT22;41951;49.022;12.066;2023-06-14T12:04:43;24.00;76.20
56076;DHT22;41951;49.022;12.066;2023-06-14T12:07:16;24.30;76.60
56076;DHT22;41951;49.022;12.066;2023-06-14T12:12:24;24.40;75.30
56076;DHT22;41951;49.022;12.066;2023-06-14T12:14:54;24.40;74.70
56076;DHT22;41951;49.022;12.066;2023-06-14T12:17:21;24.10;74.40
56076;DHT22;41951;49.022;12.066;2023-06-14T12:19:49;24.00;75.40
56076;DHT22;41951;49.022;12.066;2023-06-14T12:22:15;23.70;74.90
56076;DHT22;41951;49.022;12.066;2023-06-14T12:24:45;23.60;74.70
56076;DHT22;41951;49.022;12.066;2023-06-14T12:27:11;23.50;75.40
56076;DHT22;41951;49.022;12.066;2023-06-14T12:29:41;23.30;75.10
56076;DHT22;41951;49.022;12.066;2023-06-14T12:32:09;23.20;75.60
56076;DHT22;41951;49.022;12.066;2023-06-14T12:34:34;23.20;75.40
56076;DHT22;41951;49.022;12.066;2023-06-14T12:37:01;23.00;76.30
56076;DHT22;41951;49.022;12.066;2023-06-14T12:39:26;23.00;76.10
56076;DHT22;41951;49.022;12.066;2023-06-14T12:41:53;23.00;76.50
56076;DHT22;41951;49.022;12.066;2023-06-14T12:44:19;22.90;76.40
56076;DHT22;41951;49.022;12.066;2023-06-14T12:46:45;22.90;76.50
56076;DHT22;41951;49.022;12.066;2023-06-14T12:49:11;23.00;76.20
56076;DHT22;41951;49.022;12.066;2023-06-14T12:51:38;22.90;76.60
56076;DHT22;41951;49.022;12.066;2023-06-14T12:54:04;23.00;76.60
56076;DHT22;41951;49.022;12.066;2023-06-14T12:56:30;23.00;76.50
56076;DHT22;41951;49.022;12.066;2023-06-14T12:58:56;23.00;76.30
56076;DHT22;41951;49.022;12.066;2023-06-14T13:01:22;22.80;74.30
56076;DHT22;41951;49.022;12.066;2023-06-14T13:03:47;22.80;74.80
56076;DHT22;41951;49.022;12.066;2023-06-14T13:06:13;22.90;75.20
56076;DHT22;41951;49.022;12.066;2023-06-14T13:08:39;22.80;74.80
56076;DHT22;41951;49.022;12.066;2023-06-14T13:11:04;22.70;75.00
56076;DHT22;41951;49.022;12.066;2023-06-14T13:13:30;22.80;75.10
56076;DHT22;41951;49.022;12.066;2023-06-14T13:15:56;23.00;75.30
56076;DHT22;41951;49.022;12.066;2023-06-14T13:18:21;23.10;75.30
56076;DHT22;41951;49.022;12.066;2023-06-14T13:20:47;23.20;75.30
56076;DHT22;41951;49.022;12.066;2023-06-14T13:23:13;23.40;74.70
56076;DHT22;41951;49.022;12.066;2023-06-14T13:25:39;23.40;74.30
56076;DHT22;41951;49.022;12.066;2023-06-14T13:28:05;23.50;74.30
56076;DHT22;41951;49.022;12.066;2023-06-14T13:30:32;23.40;74.00
56076;DHT22;41951;49.022;12.066;2023-06-14T13:32:58;23.50;74.20
56076;DHT22;41951;49.022;12.066;2023-06-14T13:35:24;23.50;74.30
56076;DHT22;41951;49.022;12.066;2023-06-14T13:37:50;23.60;74.20
56076;DHT22;41951;49.022;12.066;2023-06-14T13:40:15;23.40;74.20
56076;DHT22;41951;49.022;12.066;2023-06-14T13:42:41;23.60;74.20
56076;DHT22;41951;49.022;12.066;2023-06-14T13:45:08;23.50;73.60
56076;DHT22;41951;49.022;12.066;2023-06-14T13:47:34;23.70;73.30
56076;DHT22;41951;49.022;12.066;2023-06-14T13:49:59;23.80;73.20
56076;DHT22;41951;49.022;12.066;2023-06-14T13:52:25;24.10;72.90
56076;DHT22;41951;49.022;12.066;2023-06-14T13:54:51;24.10;72.30
56076;DHT22;41951;49.022;12.066;2023-06-14T13:57:17;24.30;72.00
56076;DHT22;41951;49.022;12.066;2023-06-14T13:59:43;24.50;71.40
56076;DHT22;41951;49.022;12.066;2023-06-14T14:02:10;24.90;71.10
56076;DHT22;41951;49.022;12.066;2023-06-14T14:04:36;25.40;70.50
56076;DHT22;41951;49.022;12.066;2023-06-14T14:07:03;25.90;70.20
56076;DHT22;41951;49.022;12.066;2023-06-14T14:09:30;25.60;68.60
56076;DHT22;41951;49.022;12.066;2023-06-14T14:11:56;25.50;69.10
56076;DHT22;41951;49.022;12.066;2023-06-14T14:14:21;25.10;69.00
56076;DHT22;41951;49.022;12.066;2023-06-14T14:16:49;24.90;69.30
56076;DHT22;41951;49.022;12.066;2023-06-14T14:19:17;24.70;69.80
56076;DHT22;41951;49.022;12.066;2023-06-14T14:21:44;24.10;70.00
56076;DHT22;41951;49.022;12.066;2023-06-14T14:24:10;24.00;70.50
56076;DHT22;41951;49.022;12.066;2023-06-14T14:26:35;24.00;70.50
56076;DHT22;41951;49.022;12.066;2023-06-14T14:29:01;23.90;71.20
56076;DHT22;41951;49.022;12.066;2023-06-14T14:31:28;23.90;70.80
56076;DHT22;41951;49.022;12.066;2023-06-14T14:33:53;23.70;71.10
56076;DHT22;41951;49.022;12.066;2023-06-14T14:36:19;23.70;71.10
56076;DHT22;41951;49.022;12.066;2023-06-14T14:38:45;23.60;71.20
56076;DHT22;41951;49.022;12.066;2023-06-14T14:41:12;23.70;71.80
56076;DHT22;41951;49.022;12.066;2023-06-14T14:43:38;23.60;71.50
56076;DHT22;41951;49.022;12.066;2023-06-14T14:46:03;23.60;71.60
56076;DHT22;41951;49.022;12.066;2023-06-14T14:48:29;23.50;71.40
56076;DHT22;41951;49.022;12.066;2023-06-14T14:50:54;23.40;71.30
56076;DHT22;41951;49.022;12.066;2023-06-14T14:53:20;23.40;71.60
56076;DHT22;41951;49.022;12.066;2023-06-14T14:55:45;23.40;71.60
56076;DHT22;41951;49.022;12.066;2023-06-14T14:58:12;23.30;71.50
56076;DHT22;41951;49.022;12.066;2023-06-14T15:00:38;23.30;71.50
56076;DHT22;41951;49.022;12.066;2023-06-14T15:03:04;23.30;71.60
56076;DHT22;41951;49.022;12.066;2023-06-14T15:05:29;23.40;72.00
56076;DHT22;41951;49.022;12.066;2023-06-14T15:07:55;23.40;71.80
56076;DHT22;41951;49.022;12.066;2023-06-14T15:10:20;23.40;72.00
56076;DHT22;41951;49.022;12.066;2023-06-14T15:12:46;23.30;72.60
56076;DHT22;41951;49.022;12.066;2023-06-14T15:15:12;23.30;73.10
56076;DHT22;41951;49.022;12.066;2023-06-14T15:17:37;23.30;73.30
56076;DHT22;41951;49.022;12.066;2023-06-14T15:20:03;23.30;73.20
56076;DHT22;41951;49.022;12.066;2023-06-14T15:22:29;23.30;73.10
56076;DHT22;41951;49.022;12.066;2023-06-14T15:24:55;23.30;73.00
56076;DHT22;41951;49.022;12.066;2023-06-14T15:27:20;23.40;73.00